Time;durP1;ratioP1;P1;durP2;ratioP2;P2;SDS_P1;SDS_P2;PMS_P1;PMS_P2;Temp;Humidity;BMP_temperature;BMP_pressure;BME280_temperature;BME280_humidity;BME280_pressure;Samples;Min_cycle;Max_cycle;Signal;HPM_P1;HPM_P2
2023/01/05 00:04:34;;;;;;;26.70;9.25;;;8.10;99.90;;;;;;21268202;27;20481;-77
2023/01/05 00:25:01;;;;;;;19.45;8.27;;;8.10;99.90;;;;;;21267677;27;20092;-79
2023/01/05 00:35:02;;;;;;;28.63;10.48;;;8.10;99.90;;;;;;21268308;27;20099;-78
2023/01/05 00:45:10;;;;;;;42.25;12.20;;;8.10;99.90;;;;;;21252325;27;20035;-78
2023/01/05 00:55:12;;;;;;;22.98;8.75;;;8.00;99.90;;;;;;21212954;28;20497;-77
2023/01/05 01:05:13;;;;;;;27.35;9.32;;;8.10;99.90;;;;;;21256911;27;20035;-77
2023/01/05 01:15:18;;;;;;;16.10;6.22;;;8.10;99.90;;;;;;21301448;27;20051;-77
2023/01/05 01:25:18;;;;;;;6.97;3.47;;;8.20;99.90;;;;;;21339271;27;20159;-78
2023/01/05 01:35:20;;;;;;;10.63;4.75;;;8.40;99.90;;;;;;21274874;27;20152;-78
2023/01/05 01:45:24;;;;;;;10.38;4.88;;;8.20;99.90;;;;;;21063302;28;20454;-79
2023/01/05 01:55:26;;;;;;;14.77;7.18;;;8.40;99.90;;;;;;21095510;28;20044;-78
2023/01/05 02:05:30;;;;;;;18.42;8.10;;;8.50;99.90;;;;;;21095088;28;20521;-79
2023/01/05 02:15:54;;;;;;;24.33;8.68;;;8.60;99.90;;;;;;21239655;27;20043;-79
2023/01/05 02:26:04;;;;;;;13.23;4.90;;;8.60;99.90;;;;;;21261556;27;20050;-79
2023/01/05 02:36:21;;;;;;;8.30;3.60;;;8.70;99.90;;;;;;21306232;27;20031;-78
2023/01/05 02:46:23;;;;;;;7.10;3.78;;;8.80;99.90;;;;;;21274678;27;20062;-79
2023/01/05 02:56:55;;;;;;;10.65;4.38;;;8.80;99.90;;;;;;21094709;28;20473;-78
2023/01/05 03:07:03;;;;;;;12.97;4.77;;;8.80;99.90;;;;;;21076370;28;20044;-79
2023/01/05 03:17:08;;;;;;;12.13;5.15;;;8.80;99.90;;;;;;21096720;28;20040;-78
2023/01/05 03:37:49;;;;;;;13.50;5.07;;;8.90;99.90;;;;;;21325248;27;20088;-78
2023/01/05 03:47:51;;;;;;;6.90;3.72;;;8.90;99.90;;;;;;21340359;27;20039;-78
2023/01/05 03:57:57;;;;;;;5.18;2.78;;;8.90;99.90;;;;;;21176527;28;20505;-79
2023/01/05 04:07:59;;;;;;;4.60;2.20;;;9.00;99.90;;;;;;21149253;28;20047;-78
2023/01/05 04:18:02;;;;;;;2.60;1.77;;;9.10;99.90;;;;;;21074436;28;20050;-79
2023/01/05 04:28:04;;;;;;;3.55;2.08;;;9.10;99.90;;;;;;21198905;27;20039;-79
2023/01/05 04:38:05;;;;;;;3.65;2.13;;;9.10;99.90;;;;;;21296981;27;20622;-79
2023/01/05 04:48:06;;;;;;;3.63;2.22;;;9.10;99.90;;;;;;21221210;27;20043;-79
2023/01/05 04:58:08;;;;;;;3.72;1.98;;;9.10;99.90;;;;;;21166679;28;20114;-79
2023/01/05 05:08:13;;;;;;;3.55;1.58;;;9.20;99.90;;;;;;21162183;28;20104;-79
2023/01/05 05:18:15;;;;;;;3.53;1.63;;;9.20;99.90;;;;;;21184588;28;20043;-78
2023/01/05 05:28:18;;;;;;;3.70;2.20;;;9.30;99.90;;;;;;21147347;28;20039;-78
2023/01/05 05:38:19;;;;;;;2.92;1.52;;;9.30;99.90;;;;;;21165159;28;20039;-78
2023/01/05 05:48:20;;;;;;;3.90;0.97;;;9.40;99.90;;;;;;21187505;28;20043;-79
2023/01/05 05:58:21;;;;;;;5.03;0.80;;;9.60;99.90;;;;;;21181743;28;20040;-78
2023/01/05 06:08:23;;;;;;;2.53;1.57;;;9.60;99.90;;;;;;21197795;27;20043;-77
2023/01/05 06:18:23;;;;;;;4.25;1.98;;;9.50;99.90;;;;;;21259444;27;20504;-78
2023/01/05 06:28:26;;;;;;;;;;;9.50;99.90;;;;;;21267288;27;20050;-79
2023/01/05 06:38:28;;;;;;;4.37;2.30;;;9.40;99.90;;;;;;21272363;27;19968;-78
2023/01/05 06:48:29;;;;;;;6.30;2.05;;;9.50;99.90;;;;;;21265556;27;20117;-78
2023/01/05 06:58:29;;;;;;;1.57;0.90;;;9.50;99.90;;;;;;21253409;27;20050;-78
2023/01/05 07:08:30;;;;;;;1.80;0.80;;;9.60;99.90;;;;;;21269032;27;20054;-78
2023/01/05 07:18:31;;;;;;;1.20;0.80;;;9.60;99.90;;;;;;21268923;27;20572;-77
2023/01/05 07:28:34;;;;;;;4.80;1.90;;;9.70;99.90;;;;;;21269896;27;20039;-78
2023/01/05 07:38:36;;;;;;;4.15;1.88;;;9.70;99.90;;;;;;21269252;27;20038;-77
2023/01/05 07:48:40;;;;;;;9.07;3.92;;;9.70;99.90;;;;;;21247672;27;20031;-77
2023/01/05 07:58:42;;;;;;;13.10;3.88;;;9.70;99.90;;;;;;21247155;27;20050;-77
2023/01/05 08:08:43;;;;;;;8.60;3.35;;;9.70;99.90;;;;;;21218707;27;20036;-77
2023/01/05 08:18:45;;;;;;;16.67;6.57;;;9.70;99.90;;;;;;21081439;28;20040;-78
2023/01/05 08:28:50;;;;;;;11.13;3.13;;;9.70;99.90;;;;;;21092906;28;20502;-77
2023/01/05 08:38:54;;;;;;;7.43;3.20;;;9.70;99.90;;;;;;21086778;28;20086;-77
2023/01/05 08:48:57;;;;;;;3.58;1.80;;;9.70;99.90;;;;;;21074715;28;20512;-76
2023/01/05 08:58:59;;;;;;;1.95;1.17;;;9.80;99.90;;;;;;21100590;28;20051;-77
2023/01/05 09:09:04;;;;;;;1.33;0.63;;;9.90;99.90;;;;;;21151558;27;20035;-80
2023/01/05 09:19:08;;;;;;;3.70;0.57;;;10.10;99.90;;;;;;21296826;27;20096;-79
2023/01/05 09:29:10;;;;;;;2.85;1.55;;;10.40;99.90;;;;;;21276416;27;20043;-78
2023/01/05 09:39:12;;;;;;;2.08;0.60;;;10.60;99.90;;;;;;21293609;27;20545;-79
2023/01/05 09:49:15;;;;;;;6.27;3.63;;;10.80;99.90;;;;;;21289557;27;20043;-79
2023/01/05 09:59:32;;;;;;;11.30;4.90;;;11.60;99.90;;;;;;21288065;27;20035;-78
2023/01/05 10:09:38;;;;;;;1.70;0.80;;;11.80;99.90;;;;;;21260625;27;20100;-79
2023/01/05 10:19:41;;;;;;;0.88;0.43;;;11.70;99.90;;;;;;21280319;27;20209;-79
2023/01/05 10:29:48;;;;;;;1.20;1.10;;;11.60;99.90;;;;;;21276589;27;20740;-78
2023/01/05 10:40:01;;;;;;;0.57;0.30;;;11.70;99.90;;;;;;21255646;27;20046;-78
2023/01/05 10:50:25;;;;;;;4.35;0.47;;;11.90;99.90;;;;;;21274552;27;20035;-79
2023/01/05 11:00:40;;;;;;;0.30;0.30;;;11.70;99.90;;;;;;21256973;27;20039;-80
2023/01/05 11:10:55;;;;;;;1.27;0.30;;;11.60;99.90;;;;;;21271397;27;20054;-78
2023/01/05 11:21:09;;;;;;;0.30;0.20;;;11.70;99.90;;;;;;21296262;27;20046;-78
2023/01/05 11:31:10;;;;;;;0.22;0.22;;;11.90;99.90;;;;;;21265904;27;20038;-78
2023/01/05 11:41:13;;;;;;;3.13;0.23;;;13.00;99.90;;;;;;21261761;27;20035;-78
2023/01/05 11:51:33;;;;;;;0.25;0.25;;;13.60;99.90;;;;;;21243642;27;20050;-78
2023/01/05 12:02:01;;;;;;;0.55;0.28;;;13.20;99.90;;;;;;21261723;27;20039;-78
2023/01/05 12:12:13;;;;;;;0.75;0.40;;;13.80;99.90;;;;;;21222814;27;20103;-78
2023/01/05 12:22:26;;;;;;;0.57;0.47;;;12.40;99.90;;;;;;21178493;28;20043;-78
2023/01/05 12:32:54;;;;;;;1.50;0.25;;;12.20;99.90;;;;;;21179853;28;20114;-78
2023/01/05 12:43:08;;;;;;;2.53;0.20;;;12.90;99.90;;;;;;21178941;28;20119;-78
2023/01/05 12:53:36;;;;;;;12.43;6.30;;;13.80;99.90;;;;;;21180418;28;20082;-78
2023/01/05 13:04:04;;;;;;;6.13;3.80;;;13.10;99.90;;;;;;21172392;28;20039;-78
2023/01/05 13:14:23;;;;;;;3.83;2.17;;;12.80;99.90;;;;;;21231658;27;20039;-78
2023/01/05 13:24:33;;;;;;;1.30;1.13;;;12.70;99.90;;;;;;21248534;27;20035;-77
2023/01/05 13:34:49;;;;;;;0.43;0.30;;;12.60;99.90;;;;;;21255824;28;20027;-78
2023/01/05 13:45:05;;;;;;;27.45;8.65;;;12.50;99.90;;;;;;21269659;27;20038;-78
2023/01/05 13:55:12;;;;;;;10.93;6.65;;;12.50;99.90;;;;;;21270160;27;20039;-78
2023/01/05 14:05:29;;;;;;;0.90;0.70;;;12.50;99.90;;;;;;21247431;27;20067;-77
2023/01/05 14:15:36;;;;;;;1.17;0.30;;;12.40;99.90;;;;;;21263331;27;20498;-77
2023/01/05 14:25:59;;;;;;;8.13;5.10;;;12.30;99.90;;;;;;21260929;27;20122;-76
2023/01/05 14:36:03;;;;;;;20.88;9.13;;;12.30;99.90;;;;;;20999666;28;20032;-78
2023/01/05 14:46:08;;;;;;;10.10;5.38;;;12.30;99.90;;;;;;20986936;28;20044;-78
2023/01/05 14:56:25;;;;;;;2.65;1.33;;;12.10;99.90;;;;;;21003543;28;20032;-77
2023/01/05 15:06:28;;;;;;;2.83;1.63;;;12.00;99.90;;;;;;21060160;27;20721;-77
2023/01/05 15:16:54;;;;;;;2.50;1.05;;;11.80;99.90;;;;;;21264147;27;20140;-78
2023/01/05 15:27:24;;;;;;;3.85;1.75;;;11.70;99.90;;;;;;21250628;27;20038;-77
2023/01/05 15:37:33;;;;;;;0.95;0.68;;;11.50;99.90;;;;;;21245184;27;20035;-78
2023/01/05 15:47:39;;;;;;;1.20;0.63;;;11.40;99.90;;;;;;21224906;27;20123;-77
2023/01/05 15:57:40;;;;;;;1.60;0.80;;;11.30;99.90;;;;;;21247905;27;20624;-77
2023/01/05 16:07:47;;;;;;;2.55;1.20;;;11.20;99.90;;;;;;21246659;27;20093;-77
2023/01/05 16:17:50;;;;;;;1.77;0.90;;;11.10;99.90;;;;;;21247479;27;20035;-77
2023/01/05 16:27:57;;;;;;;1.98;0.88;;;11.00;99.90;;;;;;21249657;27;20046;-77
2023/01/05 16:38:25;;;;;;;4.47;0.80;;;10.90;99.90;;;;;;21262618;27;20493;-78
2023/01/05 16:48:37;;;;;;;18.17;4.75;;;10.80;99.90;;;;;;21256116;27;20044;-77
2023/01/05 16:58:38;;;;;;;;;;;10.70;99.90;;;;;;21237982;28;20043;-78
2023/01/05 17:08:39;;;;;;;2.15;1.58;;;10.70;99.90;;;;;;21224226;27;19919;-79
2023/01/05 17:18:40;;;;;;;4.87;1.70;;;10.70;99.90;;;;;;21229752;27;20118;-78
2023/01/05 17:28:41;;;;;;;1.75;1.48;;;10.70;99.90;;;;;;21254421;27;20436;-78
2023/01/05 17:38:43;;;;;;;5.03;2.60;;;10.60;99.90;;;;;;21274513;27;20108;-79
2023/01/05 17:48:46;;;;;;;6.65;3.00;;;10.50;99.90;;;;;;21238914;27;20417;-78
2023/01/05 17:58:47;;;;;;;2.92;2.10;;;10.50;99.90;;;;;;21262818;27;20074;-78
2023/01/05 18:08:49;;;;;;;3.90;1.90;;;11.00;99.90;;;;;;21262266;27;20031;-76
2023/01/05 18:18:50;;;;;;;3.53;2.20;;;11.40;99.90;;;;;;21269062;27;20039;-78
2023/01/05 18:28:52;;;;;;;2.50;1.80;;;11.50;99.90;;;;;;21254834;27;20034;-77
2023/01/05 18:38:56;;;;;;;4.25;2.00;;;11.70;99.90;;;;;;21260044;27;20041;-78
2023/01/05 18:48:58;;;;;;;3.80;2.47;;;11.60;99.90;;;;;;21275291;27;20071;-78
2023/01/05 18:58:59;;;;;;;3.43;2.27;;;10.80;99.90;;;;;;21252864;27;20053;-79
2023/01/05 19:09:02;;;;;;;4.73;2.37;;;10.30;99.90;;;;;;21250487;27;20114;-79
2023/01/05 19:19:08;;;;;;;10.48;3.72;;;9.30;99.90;;;;;;21270876;27;20055;-79
2023/01/05 19:29:10;;;;;;;9.35;4.57;;;9.10;99.90;;;;;;21264690;27;20039;-78
2023/01/05 19:39:16;;;;;;;4.85;3.45;;;9.00;99.90;;;;;;21247972;27;20062;-79
2023/01/05 19:49:26;;;;;;;8.10;3.67;;;8.90;99.90;;;;;;21259150;27;20039;-78
2023/01/05 19:59:31;;;;;;;10.13;4.43;;;8.60;99.90;;;;;;21246952;27;20035;-79
2023/01/05 20:09:32;;;;;;;12.07;4.85;;;8.70;99.90;;;;;;21247007;27;20054;-78
2023/01/05 20:19:35;;;;;;;8.93;5.23;;;8.50;99.90;;;;;;21266184;27;20035;-79
2023/01/05 20:29:38;;;;;;;9.25;4.65;;;8.40;99.90;;;;;;21259529;27;20685;-79
2023/01/05 20:39:41;;;;;;;8.82;6.18;;;8.20;99.90;;;;;;21237803;27;20493;-79
2023/01/05 20:49:45;;;;;;;8.02;5.38;;;7.90;99.90;;;;;;21257259;27;20389;-79
2023/01/05 20:59:45;;;;;;;5.53;3.55;;;7.80;99.90;;;;;;21258906;28;20063;-79
2023/01/05 21:09:49;;;;;;;5.57;3.00;;;7.50;99.90;;;;;;21211859;28;20050;-78
2023/01/05 21:19:50;;;;;;;3.22;2.22;;;7.10;99.90;;;;;;21088021;28;20391;-79
2023/01/05 21:29:51;;;;;;;9.37;4.37;;;7.10;99.90;;;;;;21110453;28;20032;-79
2023/01/05 21:39:52;;;;;;;15.43;5.67;;;7.10;99.90;;;;;;21148233;28;20038;-79
2023/01/05 21:49:52;;;;;;;8.10;3.53;;;6.90;99.90;;;;;;21076617;28;20286;-78
2023/01/05 21:59:53;;;;;;;5.23;2.97;;;6.90;99.90;;;;;;21081507;28;20047;-78
2023/01/05 22:09:54;;;;;;;23.50;4.90;;;6.70;99.90;;;;;;21145873;27;20059;-78
2023/01/05 22:19:55;;;;;;;;;;;6.40;99.90;;;;;;21261674;27;20435;-78
2023/01/05 22:29:55;;;;;;;8.90;1.90;;;6.40;99.90;;;;;;21268743;27;19915;-78
2023/01/05 22:39:56;;;;;;;;;;;6.20;99.90;;;;;;21263134;27;20527;-78
2023/01/05 22:49:57;;;;;;;2.13;1.40;;;5.80;99.90;;;;;;21264034;27;20274;-78
2023/01/05 22:59:58;;;;;;;;;;;5.70;99.90;;;;;;21267107;27;20027;-78
2023/01/05 23:10:00;;;;;;;7.00;2.00;;;5.40;99.90;;;;;;21269484;27;20425;-78
2023/01/05 23:20:01;;;;;;;3.70;1.27;;;5.60;99.90;;;;;;21260829;27;20273;-78
2023/01/05 23:30:05;;;;;;;4.47;1.45;;;5.50;99.90;;;;;;21300806;27;20606;-78
2023/01/05 23:40:07;;;;;;;14.07;5.55;;;5.20;99.90;;;;;;21258920;27;20038;-78
2023/01/05 23:50:09;;;;;;;234.70;12.07;;;5.40;99.90;;;;;;21228418;27;20035;-78
